Time;durP1;ratioP1;P1;durP2;ratioP2;P2;SDS_P1;SDS_P2;PMS_P1;PMS_P2;Temp;Humidity;BMP_temperature;BMP_pressure;BME280_temperature;BME280_humidity;BME280_pressure;Samples;Min_cycle;Max_cycle;Signal;HPM_P1;HPM_P2
2022/10/25 00:01:04;;;;;;;;;;;;;;;;;;5019869;28;20199;-33
2022/10/25 00:03:29;;;;;;;;;;;;;;;;;;5018336;28;19948;-34
2022/10/25 00:05:54;;;;;;;;;;;;;;;;;;5023858;28;19925;-34
2022/10/25 00:08:19;;;;;;;;;;;;;;;;;;5009928;28;20506;-34
2022/10/25 00:10:45;;;;;;;;;;;;;;;;;;4998753;28;19928;-34
2022/10/25 00:13:10;;;;;;;;;;;;;;;;;;4997617;28;19928;-34
2022/10/25 00:15:35;;;;;;;;;;;;;;;;;;5000076;28;19975;-34
2022/10/25 00:18:00;;;;;;;;;;;;;;;;;;5001839;28;19922;-34
2022/10/25 00:20:25;;;;;;;;;;;;;;;;;;4997711;28;19932;-34
2022/10/25 00:22:50;;;;;;;;;;;;;;;;;;4998222;28;19952;-34
2022/10/25 00:25:15;;;;;;;;;;;;;;;;;;5000188;28;19975;-34
2022/10/25 00:27:41;;;;;;;;;;;;;;;;;;4997830;28;19953;-34
2022/10/25 00:30:06;;;;;;;;;;;;;;;;;;5002744;28;20301;-34
2022/10/25 00:32:31;;;;;;;;;;;;;;;;;;4996327;28;19918;-33
2022/10/25 00:34:56;;;;;;;;;;;;;;;;;;5001629;28;19932;-33
2022/10/25 00:37:21;;;;;;;;;;;;;;;;;;5000821;28;19917;-34
2022/10/25 00:39:46;;;;;;;;;;;;;;;;;;5004085;28;19921;-34
2022/10/25 00:42:12;;;;;;;;;;;;;;;;;;4999072;28;20275;-34
2022/10/25 00:44:37;;;;;;;;;;;;;;;;;;5002487;28;20309;-34
2022/10/25 00:47:02;;;;;;;;;;;;;;;;;;5002797;28;19933;-34
2022/10/25 00:49:27;;;;;;;;;;;;;;;;;;5001825;28;19921;-34
2022/10/25 00:51:52;;;;;;;;;;;;;;;;;;5000263;28;19917;-34
2022/10/25 00:54:17;;;;;;;;;;;;;;;;;;5001704;28;19913;-34
2022/10/25 00:56:43;;;;;;;;;;;;;;;;;;4997516;28;19949;-34
2022/10/25 00:59:08;;;;;;;;;;;;;;;;;;5001053;28;19917;-34
2022/10/25 01:01:33;;;;;;;;;;;;;;;;;;4995742;28;19922;-34
2022/10/25 01:03:58;;;;;;;;;;;;;;;;;;5000554;28;20359;-34
2022/10/25 01:06:23;;;;;;;;;;;;;;;;;;4995907;28;19976;-34
2022/10/25 01:08:48;;;;;;;;;;;;;;;;;;5001516;28;19952;-34
2022/10/25 01:11:13;;;;;;;;;;;;;;;;;;4999056;28;20541;-34
2022/10/25 01:13:39;;;;;;;;;;;;;;;;;;4995802;28;19922;-34
2022/10/25 01:16:04;;;;;;;;;;;;;;;;;;4999874;28;20402;-34
2022/10/25 01:18:29;;;;;;;;;;;;;;;;;;5000481;28;19918;-34
2022/10/25 01:20:54;;;;;;;;;;;;;;;;;;5000608;28;19922;-34
2022/10/25 01:23:19;;;;;;;;;;;;;;;;;;4998635;28;20311;-34
2022/10/25 01:25:44;;;;;;;;;;;;;;;;;;5002502;28;19968;-35
2022/10/25 01:28:09;;;;;;;;;;;;;;;;;;5000764;28;19913;-35
2022/10/25 01:30:35;;;;;;;;;;;;;;;;;;5000177;28;19917;-35
2022/10/25 01:33:00;;;;;;;;;;;;;;;;;;4997604;28;19917;-35
2022/10/25 01:35:25;;;;;;;;;;;;;;;;;;5000157;28;19921;-35
2022/10/25 01:37:50;;;;;;;;;;;;;;;;;;4999644;28;19913;-34
2022/10/25 01:40:15;;;;;;;;;;;;;;;;;;4998285;28;19913;-34
2022/10/25 01:42:40;;;;;;;;;;;;;;;;;;5000718;28;19921;-35
2022/10/25 01:45:06;;;;;;;;;;;;;;;;;;5000875;28;19914;-35
2022/10/25 01:47:31;;;;;;;;;;;;;;;;;;5000407;28;19913;-34
2022/10/25 01:49:56;;;;;;;;;;;;;;;;;;5003342;28;19941;-34
2022/10/25 01:52:21;;;;;;;;;;;;;;;;;;4999212;28;19927;-34
2022/10/25 01:54:46;;;;;;;;;;;;;;;;;;5000167;28;20405;-34
2022/10/25 01:57:11;;;;;;;;;;;;;;;;;;4994166;28;19924;-35
2022/10/25 01:59:37;;;;;;;;;;;;;;;;;;4998718;28;20000;-34
2022/10/25 02:02:02;;;;;;;;;;;;;;;;;;5000985;28;20848;-34
2022/10/25 02:04:27;;;;;;;;;;;;;;;;;;4996817;28;20288;-35
2022/10/25 02:06:53;;;;;;;;;;;;;;;;;;5002048;28;19914;-35
2022/10/25 02:09:18;;;;;;;;;;;;;;;;;;5002536;28;19910;-35
2022/10/25 02:11:43;;;;;;;;;;;;;;;;;;5003645;28;20016;-35
2022/10/25 02:14:08;;;;;;;;;;;;;;;;;;5002493;28;19920;-34
2022/10/25 02:16:33;;;;;;;;;;;;;;;;;;5002688;28;19933;-34
2022/10/25 02:18:58;;;;;;;;;;;;;;;;;;5004978;28;20343;-34
2022/10/25 02:21:23;;;;;;;;;;;;;;;;;;5001942;28;20063;-34
2022/10/25 02:23:49;;;;;;;;;;;;;;;;;;5003396;28;19920;-35
2022/10/25 02:26:14;;;;;;;;;;;;;;;;;;4999377;28;20444;-35
2022/10/25 02:28:39;;;;;;;;;;;;;;;;;;5001894;28;20007;-35
2022/10/25 02:31:04;;;;;;;;;;;;;;;;;;5002067;28;19928;-35
2022/10/25 02:33:29;;;;;;;;;;;;;;;;;;5002110;28;19943;-35
2022/10/25 02:35:55;;;;;;;;;;;;;;;;;;5003192;28;19922;-35
2022/10/25 02:38:20;;;;;;;;;;;;;;;;;;4999275;28;19936;-34
2022/10/25 02:40:45;;;;;;;;;;;;;;;;;;5002148;28;20113;-34
2022/10/25 02:43:10;;;;;;;;;;;;;;;;;;5000490;28;20387;-35
2022/10/25 02:45:35;;;;;;;;;;;;;;;;;;4998913;28;19913;-34
2022/10/25 02:48:00;;;;;;;;;;;;;;;;;;5000247;28;20383;-34
2022/10/25 02:50:25;;;;;;;;;;;;;;;;;;5002728;28;19917;-35
2022/10/25 02:52:51;;;;;;;;;;;;;;;;;;5000553;28;19925;-35
2022/10/25 02:55:16;;;;;;;;;;;;;;;;;;5005408;28;20371;-34
2022/10/25 02:57:41;;;;;;;;;;;;;;;;;;5005472;28;19924;-35
2022/10/25 03:00:06;;;;;;;;;;;;;;;;;;5002926;28;19972;-35
2022/10/25 03:02:31;;;;;;;;;;;;;;;;;;4999036;28;20383;-35
2022/10/25 03:04:57;;;;;;;;;;;;;;;;;;5001757;28;19956;-35
2022/10/25 03:07:22;;;;;;;;;;;;;;;;;;5004871;28;20324;-34
2022/10/25 03:09:47;;;;;;;;;;;;;;;;;;5000341;28;19992;-35
2022/10/25 03:12:12;;;;;;;;;;;;;;;;;;4997293;28;19958;-35
2022/10/25 03:14:37;;;;;;;;;;;;;;;;;;5004530;28;19914;-34
2022/10/25 03:17:03;;;;;;;;;;;;;;;;;;5002286;28;20275;-34
2022/10/25 03:19:28;;;;;;;;;;;;;;;;;;4996859;28;19953;-35
2022/10/25 03:21:53;;;;;;;;;;;;;;;;;;5003654;28;20291;-35
2022/10/25 03:24:18;;;;;;;;;;;;;;;;;;5000800;28;20137;-34
2022/10/25 03:26:43;;;;;;;;;;;;;;;;;;5020350;28;20445;-34
2022/10/25 03:29:09;;;;;;;;;;;;;;;;;;4998453;28;19917;-35
2022/10/25 03:31:34;;;;;;;;;;;;;;;;;;5000668;28;19917;-35
2022/10/25 03:34:00;;;;;;;;;;;;;;;;;;5003633;28;19913;-35
2022/10/25 03:36:25;;;;;;;;;;;;;;;;;;5004847;28;19933;-34
2022/10/25 03:38:50;;;;;;;;;;;;;;;;;;5004643;28;19926;-34
2022/10/25 03:41:15;;;;;;;;;;;;;;;;;;5001308;28;19913;-35
2022/10/25 03:43:40;;;;;;;;;;;;;;;;;;5001972;28;19921;-35
2022/10/25 03:46:05;;;;;;;;;;;;;;;;;;4999242;28;20311;-35
2022/10/25 03:48:30;;;;;;;;;;;;;;;;;;4997188;28;19992;-35
2022/10/25 03:50:56;;;;;;;;;;;;;;;;;;5003486;28;20275;-35
2022/10/25 03:53:21;;;;;;;;;;;;;;;;;;5002949;28;19953;-35
2022/10/25 03:55:47;;;;;;;;;;;;;;;;;;5002218;28;19917;-35
2022/10/25 03:58:12;;;;;;;;;;;;;;;;;;5003603;28;20402;-35
2022/10/25 04:00:37;;;;;;;;;;;;;;;;;;5002681;28;20350;-35
2022/10/25 04:03:02;;;;;;;;;;;;;;;;;;5003241;28;20303;-35
2022/10/25 04:05:27;;;;;;;;;;;;;;;;;;4993633;28;20016;-35
2022/10/25 04:07:53;;;;;;;;;;;;;;;;;;5003024;28;19940;-34
2022/10/25 04:10:18;;;;;;;;;;;;;;;;;;5001190;28;19928;-35
2022/10/25 04:12:43;;;;;;;;;;;;;;;;;;5000564;28;19972;-34
2022/10/25 04:15:08;;;;;;;;;;;;;;;;;;5000506;28;20291;-34
2022/10/25 04:17:33;;;;;;;;;;;;;;;;;;4998628;28;19927;-35
2022/10/25 04:19:59;;;;;;;;;;;;;;;;;;4999761;28;20268;-35
2022/10/25 04:22:24;;;;;;;;;;;;;;;;;;4997252;28;19923;-35
2022/10/25 04:24:49;;;;;;;;;;;;;;;;;;4999864;28;20322;-35
2022/10/25 04:27:14;;;;;;;;;;;;;;;;;;4998209;28;19917;-35
2022/10/25 04:29:39;;;;;;;;;;;;;;;;;;4999751;28;19917;-34
2022/10/25 04:32:04;;;;;;;;;;;;;;;;;;4995114;28;19921;-34
2022/10/25 04:34:29;;;;;;;;;;;;;;;;;;4997977;28;19971;-34
2022/10/25 04:36:55;;;;;;;;;;;;;;;;;;4999785;28;20407;-34
2022/10/25 04:39:20;;;;;;;;;;;;;;;;;;4997557;28;19921;-35
2022/10/25 04:41:45;;;;;;;;;;;;;;;;;;4998078;28;20398;-34
2022/10/25 04:44:10;;;;;;;;;;;;;;;;;;4995716;28;20418;-34
2022/10/25 04:46:35;;;;;;;;;;;;;;;;;;4995470;28;19913;-35
2022/10/25 04:49:00;;;;;;;;;;;;;;;;;;4998960;28;19970;-34
2022/10/25 04:51:26;;;;;;;;;;;;;;;;;;5001177;28;20044;-34
2022/10/25 04:53:51;;;;;;;;;;;;;;;;;;5000604;28;19928;-34
2022/10/25 04:56:16;;;;;;;;;;;;;;;;;;5002287;28;19914;-34
2022/10/25 04:58:41;;;;;;;;;;;;;;;;;;4999559;28;19944;-35
2022/10/25 05:01:06;;;;;;;;;;;;;;;;;;4996673;28;20376;-35
2022/10/25 05:03:31;;;;;;;;;;;;;;;;;;4998417;28;19925;-35
2022/10/25 05:05:57;;;;;;;;;;;;;;;;;;5000975;28;20413;-35
2022/10/25 05:08:22;;;;;;;;;;;;;;;;;;4994834;28;19918;-35
2022/10/25 05:10:47;;;;;;;;;;;;;;;;;;4997287;28;19914;-34
2022/10/25 05:13:12;;;;;;;;;;;;;;;;;;4997167;28;19925;-35
2022/10/25 05:15:37;;;;;;;;;;;;;;;;;;5001396;28;20303;-35
2022/10/25 05:18:02;;;;;;;;;;;;;;;;;;5003917;28;19968;-34
2022/10/25 05:20:28;;;;;;;;;;;;;;;;;;5000745;28;19925;-35
2022/10/25 05:22:53;;;;;;;;;;;;;;;;;;5004669;28;20320;-34
2022/10/25 05:25:18;;;;;;;;;;;;;;;;;;5000409;28;20463;-35
2022/10/25 05:27:43;;;;;;;;;;;;;;;;;;5002936;28;19918;-35
2022/10/25 05:30:08;;;;;;;;;;;;;;;;;;5002539;28;19913;-35
2022/10/25 05:32:33;;;;;;;;;;;;;;;;;;5001510;28;20355;-35
2022/10/25 05:34:58;;;;;;;;;;;;;;;;;;5003410;28;20097;-35
2022/10/25 05:37:24;;;;;;;;;;;;;;;;;;5001978;28;20120;-35
2022/10/25 05:39:49;;;;;;;;;;;;;;;;;;5004229;28;20001;-35
2022/10/25 05:42:14;;;;;;;;;;;;;;;;;;5004804;28;19924;-35
2022/10/25 05:44:39;;;;;;;;;;;;;;;;;;5006386;28;20333;-34
2022/10/25 05:47:04;;;;;;;;;;;;;;;;;;5007140;28;20012;-35
2022/10/25 05:49:30;;;;;;;;;;;;;;;;;;5005778;28;19921;-35
2022/10/25 05:51:55;;;;;;;;;;;;;;;;;;5000954;28;19925;-35
2022/10/25 05:54:22;;;;;;;;;;;;;;;;;;5004961;28;19913;-35
2022/10/25 05:56:47;;;;;;;;;;;;;;;;;;5002699;28;19914;-34
2022/10/25 05:59:13;;;;;;;;;;;;;;;;;;5037631;23;20416;-34
2022/10/25 06:01:38;;;;;;;;;;;;;;;;;;5027764;28;19928;-35
2022/10/25 06:04:03;;;;;;;;;;;;;;;;;;5028752;28;19917;-34
2022/10/25 06:06:28;;;;;;;;;;;;;;;;;;5029808;28;19913;-34
2022/10/25 06:08:53;;;;;;;;;;;;;;;;;;5027745;28;19921;-34
2022/10/25 06:11:18;;;;;;;;;;;;;;;;;;5028906;28;19917;-35
2022/10/25 06:13:44;;;;;;;;;;;;;;;;;;5026903;28;19960;-34
2022/10/25 06:16:09;;;;;;;;;;;;;;;;;;5028829;28;20011;-35
2022/10/25 06:18:34;;;;;;;;;;;;;;;;;;5028386;28;20287;-35
2022/10/25 06:20:59;;;;;;;;;;;;;;;;;;5028394;28;19920;-34
2022/10/25 06:23:24;;;;;;;;;;;;;;;;;;5026702;28;19913;-34
2022/10/25 06:25:49;;;;;;;;;;;;;;;;;;5025798;28;20003;-35
2022/10/25 06:28:15;;;;;;;;;;;;;;;;;;5027799;28;20410;-35
2022/10/25 06:30:40;;;;;;;;;;;;;;;;;;5027179;28;19920;-34
2022/10/25 06:33:05;;;;;;;;;;;;;;;;;;5027388;28;20345;-34
2022/10/25 06:35:32;;;;;;;;;;;;;;;;;;5028065;28;19913;-34
2022/10/25 06:37:57;;;;;;;;;;;;;;;;;;5027113;28;20007;-34
2022/10/25 06:40:22;;;;;;;;;;;;;;;;;;5027886;28;20418;-34
2022/10/25 06:42:47;;;;;;;;;;;;;;;;;;5026483;28;19921;-34
2022/10/25 06:45:12;;;;;;;;;;;;;;;;;;5027960;28;20145;-34
2022/10/25 06:47:37;;;;;;;;;;;;;;;;;;5026779;28;19921;-34
2022/10/25 06:50:03;;;;;;;;;;;;;;;;;;5027766;28;19916;-35
2022/10/25 06:52:28;;;;;;;;;;;;;;;;;;5027782;28;19917;-35
2022/10/25 06:54:53;;;;;;;;;;;;;;;;;;5025358;28;20055;-34
2022/10/25 06:57:18;;;;;;;;;;;;;;;;;;5027924;28;19959;-35
2022/10/25 06:59:45;;;;;;;;;;;;;;;;;;5025532;28;20193;-34
2022/10/25 07:02:10;;;;;;;;;;;;;;;;;;5028383;28;19913;-34
2022/10/25 07:04:36;;;;;;;;;;;;;;;;;;5026275;28;20359;-35
2022/10/25 07:07:01;;;;;;;;;;;;;;;;;;5027857;28;20044;-34
2022/10/25 07:09:26;;;;;;;;;;;;;;;;;;5027412;28;19913;-35
2022/10/25 07:11:51;;;;;;;;;;;;;;;;;;5026046;28;20926;-35
2022/10/25 07:14:16;;;;;;;;;;;;;;;;;;5027427;28;20390;-34
2022/10/25 07:16:41;;;;;;;;;;;;;;;;;;5026381;28;19935;-35
2022/10/25 07:19:07;;;;;;;;;;;;;;;;;;5027736;28;19914;-34
2022/10/25 07:21:32;;;;;;;;;;;;;;;;;;5027264;28;20271;-34
2022/10/25 07:23:57;;;;;;;;;;;;;;;;;;5025612;28;19928;-34
2022/10/25 07:26:22;;;;;;;;;;;;;;;;;;5027863;28;19986;-35
2022/10/25 07:28:48;;;;;;;;;;;;;;;;;;5025894;28;20111;-34
2022/10/25 07:31:13;;;;;;;;;;;;;;;;;;5027475;28;19917;-34
2022/10/25 07:33:38;;;;;;;;;;;;;;;;;;5026020;28;20319;-34
2022/10/25 07:36:03;;;;;;;;;;;;;;;;;;5028777;28;19917;-34
2022/10/25 07:38:28;;;;;;;;;;;;;;;;;;5032303;28;20045;-35
2022/10/25 07:40:53;;;;;;;;;;;;;;;;;;5030218;28;19921;-35
2022/10/25 07:43:18;;;;;;;;;;;;;;;;;;5031164;28;19952;-35
2022/10/25 07:45:44;;;;;;;;;;;;;;;;;;5031895;28;19913;-35
2022/10/25 07:48:09;;;;;;;;;;;;;;;;;;5033651;28;19980;-35
2022/10/25 07:50:34;;;;;;;;;;;;;;;;;;5031379;28;20393;-35
2022/10/25 07:52:59;;;;;;;;;;;;;;;;;;5030666;28;19929;-35
2022/10/25 07:55:24;;;;;;;;;;;;;;;;;;5028801;28;19925;-35
2022/10/25 07:57:49;;;;;;;;;;;;;;;;;;5025402;28;20287;-35
2022/10/25 08:00:14;;;;;;;;;;;;;;;;;;5027210;28;19913;-35
2022/10/25 08:02:40;;;;;;;;;;;;;;;;;;5026162;28;20331;-34
2022/10/25 08:05:05;;;;;;;;;;;;;;;;;;5026448;28;19913;-35
2022/10/25 08:07:30;;;;;;;;;;;;;;;;;;5027161;28;19923;-35
2022/10/25 08:09:55;;;;;;;;;;;;;;;;;;5025560;28;19924;-34
2022/10/25 08:12:20;;;;;;;;;;;;;;;;;;5027033;28;19917;-34
2022/10/25 08:14:45;;;;;;;;;;;;;;;;;;5025035;28;19913;-35
2022/10/25 08:17:11;;;;;;;;;;;;;;;;;;5027165;28;19913;-35
2022/10/25 08:19:36;;;;;;;;;;;;;;;;;;5025149;28;20375;-35
2022/10/25 08:22:01;;;;;;;;;;;;;;;;;;5025735;28;19921;-35
2022/10/25 08:24:26;;;;;;;;;;;;;;;;;;5025781;28;19963;-35
2022/10/25 08:26:51;;;;;;;;;;;;;;;;;;5024927;28;20382;-35
2022/10/25 08:29:16;;;;;;;;;;;;;;;;;;5026772;28;19963;-35
2022/10/25 08:31:41;;;;;;;;;;;;;;;;;;5025262;28;19933;-35
2022/10/25 08:34:07;;;;;;;;;;;;;;;;;;5025799;28;19917;-34
2022/10/25 08:36:32;;;;;;;;;;;;;;;;;;5026253;28;19913;-35
2022/10/25 08:38:57;;;;;;;;;;;;;;;;;;5024583;28;20405;-35
2022/10/25 08:41:22;;;;;;;;;;;;;;;;;;5026423;28;19913;-34
2022/10/25 08:43:47;;;;;;;;;;;;;;;;;;5022877;28;20092;-35
2022/10/25 08:46:12;;;;;;;;;;;;;;;;;;5025835;28;19940;-35
2022/10/25 08:48:38;;;;;;;;;;;;;;;;;;5023460;28;20350;-35
2022/10/25 08:51:03;;;;;;;;;;;;;;;;;;5025932;28;19967;-35
2022/10/25 08:53:28;;;;;;;;;;;;;;;;;;5025852;28;19927;-35
2022/10/25 08:55:53;;;;;;;;;;;;;;;;;;5024679;28;19955;-35
2022/10/25 08:58:18;;;;;;;;;;;;;;;;;;5025574;28;19924;-35
2022/10/25 09:00:43;;;;;;;;;;;;;;;;;;5024411;28;19956;-35
2022/10/25 09:03:09;;;;;;;;;;;;;;;;;;5024308;28;19913;-35
2022/10/25 09:05:34;;;;;;;;;;;;;;;;;;5025363;28;20371;-35
2022/10/25 09:07:59;;;;;;;;;;;;;;;;;;5019555;28;19921;-35
2022/10/25 09:10:24;;;;;;;;;;;;;;;;;;5024292;28;19917;-35
2022/10/25 09:12:49;;;;;;;;;;;;;;;;;;5022083;28;19921;-35
2022/10/25 09:15:14;;;;;;;;;;;;;;;;;;5024963;28;20000;-34
2022/10/25 09:17:39;;;;;;;;;;;;;;;;;;5024670;28;19999;-35
2022/10/25 09:20:05;;;;;;;;;;;;;;;;;;5024336;28;19952;-35
2022/10/25 09:22:30;;;;;;;;;;;;;;;;;;5021492;28;19920;-35
2022/10/25 09:24:55;;;;;;;;;;;;;;;;;;5022472;28;19917;-34
2022/10/25 09:27:20;;;;;;;;;;;;;;;;;;5024398;28;20433;-35
2022/10/25 09:29:46;;;;;;;;;;;;;;;;;;5024480;28;19967;-34
2022/10/25 09:32:11;;;;;;;;;;;;;;;;;;5024331;28;19917;-34
2022/10/25 09:34:36;;;;;;;;;;;;;;;;;;5024374;28;19969;-35
2022/10/25 09:37:01;;;;;;;;;;;;;;;;;;5024545;28;20023;-34
2022/10/25 09:39:26;;;;;;;;;;;;;;;;;;5025180;28;19920;-34
2022/10/25 09:41:52;;;;;;;;;;;;;;;;;;5024237;28;19917;-34
2022/10/25 09:44:17;;;;;;;;;;;;;;;;;;5023085;28;19917;-34
2022/10/25 09:46:42;;;;;;;;;;;;;;;;;;5024632;28;20410;-35
2022/10/25 09:49:07;;;;;;;;;;;;;;;;;;5024459;28;19946;-34
2022/10/25 09:51:32;;;;;;;;;;;;;;;;;;5024746;28;19959;-34
2022/10/25 09:53:57;;;;;;;;;;;;;;;;;;5024096;28;20302;-35
2022/10/25 09:56:22;;;;;;;;;;;;;;;;;;5024959;28;19917;-35
2022/10/25 09:58:48;;;;;;;;;;;;;;;;;;5024302;28;19967;-34
2022/10/25 10:01:13;;;;;;;;;;;;;;;;;;5024415;28;19948;-34
2022/10/25 10:03:38;;;;;;;;;;;;;;;;;;5024095;28;19924;-34
2022/10/25 10:06:03;;;;;;;;;;;;;;;;;;5024165;28;19920;-34
2022/10/25 10:08:28;;;;;;;;;;;;;;;;;;5016000;28;20008;-34
2022/10/25 10:10:53;;;;;;;;;;;;;;;;;;5022916;28;19921;-34
2022/10/25 10:13:19;;;;;;;;;;;;;;;;;;5022614;28;20212;-34
2022/10/25 10:15:44;;;;;;;;;;;;;;;;;;5024162;28;19923;-34
2022/10/25 10:18:09;;;;;;;;;;;;;;;;;;5024134;28;20329;-34
2022/10/25 10:20:34;;;;;;;;;;;;;;;;;;5023801;28;20104;-34
2022/10/25 10:22:59;;;;;;;;;;;;;;;;;;5024575;28;19913;-35
2022/10/25 10:25:24;;;;;;;;;;;;;;;;;;5023835;28;19913;-35
2022/10/25 10:27:49;;;;;;;;;;;;;;;;;;5024367;28;19921;-34
2022/10/25 10:30:15;;;;;;;;;;;;;;;;;;5027259;28;19968;-34
2022/10/25 10:32:40;;;;;;;;;;;;;;;;;;5027299;28;19917;-34
2022/10/25 10:35:05;;;;;;;;;;;;;;;;;;5026931;28;20402;-35
2022/10/25 10:37:30;;;;;;;;;;;;;;;;;;5027462;28;19917;-35
2022/10/25 10:39:55;;;;;;;;;;;;;;;;;;5027662;28;19999;-35
2022/10/25 10:42:20;;;;;;;;;;;;;;;;;;5027561;28;19921;-35
2022/10/25 10:44:45;;;;;;;;;;;;;;;;;;5027036;28;19913;-35
2022/10/25 10:47:11;;;;;;;;;;;;;;;;;;5027312;28;20303;-35
2022/10/25 10:49:36;;;;;;;;;;;;;;;;;;5026828;28;19920;-35
2022/10/25 10:52:02;;;;;;;;;;;;;;;;;;5024765;28;20026;-35
2022/10/25 10:54:27;;;;;;;;;;;;;;;;;;5026888;28;20037;-35
2022/10/25 10:56:52;;;;;;;;;;;;;;;;;;5027907;28;19913;-35
2022/10/25 10:59:17;;;;;;;;;;;;;;;;;;5026716;28;19921;-34
2022/10/25 11:01:42;;;;;;;;;;;;;;;;;;5026935;28;19917;-35
2022/10/25 11:04:07;;;;;;;;;;;;;;;;;;5026490;28;19917;-34
2022/10/25 11:06:33;;;;;;;;;;;;;;;;;;5027041;28;19913;-35
2022/10/25 11:08:58;;;;;;;;;;;;;;;;;;5027179;28;19913;-35
2022/10/25 11:11:23;;;;;;;;;;;;;;;;;;5026974;28;20002;-35
2022/10/25 11:13:50;;;;;;;;;;;;;;;;;;5026848;28;20000;-34
2022/10/25 11:16:16;;;;;;;;;;;;;;;;;;5026436;28;19927;-35
2022/10/25 11:18:41;;;;;;;;;;;;;;;;;;5026341;28;22137;-35
2022/10/25 11:21:07;;;;;;;;;;;;;;;;;;5026275;28;19913;-35
2022/10/25 11:23:32;;;;;;;;;;;;;;;;;;5026519;28;19953;-35
2022/10/25 11:25:57;;;;;;;;;;;;;;;;;;5027016;28;19917;-35
2022/10/25 11:28:22;;;;;;;;;;;;;;;;;;5026332;28;19975;-34
2022/10/25 11:30:47;;;;;;;;;;;;;;;;;;5026852;28;19928;-35
2022/10/25 11:33:12;;;;;;;;;;;;;;;;;;5025758;28;20389;-34
2022/10/25 11:35:37;;;;;;;;;;;;;;;;;;5026292;28;19924;-35
2022/10/25 11:38:03;;;;;;;;;;;;;;;;;;5026333;28;20294;-34
2022/10/25 11:40:28;;;;;;;;;;;;;;;;;;5026726;28;19924;-35
2022/10/25 11:42:53;;;;;;;;;;;;;;;;;;5026569;28;19921;-34
2022/10/25 11:45:18;;;;;;;;;;;;;;;;;;5026068;28;19913;-34
2022/10/25 11:47:43;;;;;;;;;;;;;;;;;;5025942;28;20770;-35
2022/10/25 11:50:08;;;;;;;;;;;;;;;;;;5026124;28;19913;-35
2022/10/25 11:52:33;;;;;;;;;;;;;;;;;;5026494;28;19921;-35
2022/10/25 11:54:59;;;;;;;;;;;;;;;;;;5026275;28;20313;-35
2022/10/25 11:57:24;;;;;;;;;;;;;;;;;;5026139;28;19960;-35
2022/10/25 11:59:49;;;;;;;;;;;;;;;;;;5026386;28;19979;-35
2022/10/25 12:02:16;;;;;;;;;;;;;;;;;;5025696;28;19921;-35
2022/10/25 12:04:41;;;;;;;;;;;;;;;;;;5025253;28;19922;-35
2022/10/25 12:07:07;;;;;;;;;;;;;;;;;;5025651;28;19967;-35
2022/10/25 12:09:32;;;;;;;;;;;;;;;;;;5025905;28;19919;-35
2022/10/25 12:11:57;;;;;;;;;;;;;;;;;;5026272;28;20373;-35
2022/10/25 12:14:22;;;;;;;;;;;;;;;;;;5025473;28;19924;-35
2022/10/25 12:16:47;;;;;;;;;;;;;;;;;;5025979;28;19921;-35
2022/10/25 12:19:12;;;;;;;;;;;;;;;;;;5025251;28;19923;-35
2022/10/25 12:21:37;;;;;;;;;;;;;;;;;;5025067;28;19924;-35
2022/10/25 12:24:04;;;;;;;;;;;;;;;;;;5025496;28;20337;-35
2022/10/25 12:26:29;;;;;;;;;;;;;;;;;;5025500;28;19928;-35
2022/10/25 12:28:54;;;;;;;;;;;;;;;;;;5025870;28;19913;-35
2022/10/25 12:31:19;;;;;;;;;;;;;;;;;;5025603;28;20426;-35
2022/10/25 12:33:44;;;;;;;;;;;;;;;;;;5024750;28;20494;-35
2022/10/25 12:36:09;;;;;;;;;;;;;;;;;;5025179;28;19913;-35
2022/10/25 12:38:35;;;;;;;;;;;;;;;;;;5024996;28;19913;-35
2022/10/25 12:41:00;;;;;;;;;;;;;;;;;;5025458;28;19920;-35
2022/10/25 12:43:25;;;;;;;;;;;;;;;;;;5024678;28;19913;-35
2022/10/25 12:45:50;;;;;;;;;;;;;;;;;;5025512;28;20299;-35
2022/10/25 12:48:15;;;;;;;;;;;;;;;;;;5024828;28;19921;-35
2022/10/25 12:50:40;;;;;;;;;;;;;;;;;;5024083;28;19952;-35
2022/10/25 12:53:06;;;;;;;;;;;;;;;;;;5024499;28;19972;-35
2022/10/25 12:55:31;;;;;;;;;;;;;;;;;;5024911;28;20072;-35
2022/10/25 12:57:56;;;;;;;;;;;;;;;;;;5025084;28;19968;-35
2022/10/25 13:00:21;;;;;;;;;;;;;;;;;;5024618;28;19921;-35
2022/10/25 13:02:46;;;;;;;;;;;;;;;;;;5024751;28;19968;-35
2022/10/25 13:05:11;;;;;;;;;;;;;;;;;;5024264;28;20386;-35
2022/10/25 13:07:36;;;;;;;;;;;;;;;;;;5024578;28;19921;-35
2022/10/25 13:10:02;;;;;;;;;;;;;;;;;;5024918;28;19979;-35
2022/10/25 13:12:29;;;;;;;;;;;;;;;;;;5024395;28;19924;-35
2022/10/25 13:14:54;;;;;;;;;;;;;;;;;;5024742;28;19917;-35
2022/10/25 13:17:19;;;;;;;;;;;;;;;;;;5024421;28;19921;-35
2022/10/25 13:19:44;;;;;;;;;;;;;;;;;;5023904;28;20414;-35
2022/10/25 13:22:10;;;;;;;;;;;;;;;;;;5024347;28;19917;-35
2022/10/25 13:24:35;;;;;;;;;;;;;;;;;;5024629;28;19913;-35
2022/10/25 13:27:00;;;;;;;;;;;;;;;;;;5025061;28;19913;-35
2022/10/25 13:29:25;;;;;;;;;;;;;;;;;;5024305;28;20000;-35
2022/10/25 13:31:50;;;;;;;;;;;;;;;;;;5024664;28;20016;-35
2022/10/25 13:34:15;;;;;;;;;;;;;;;;;;5023992;28;19928;-36
2022/10/25 13:36:41;;;;;;;;;;;;;;;;;;5024318;28;20024;-35
2022/10/25 13:39:07;;;;;;;;;;;;;;;;;;5024413;28;19913;-36
2022/10/25 13:41:32;;;;;;;;;;;;;;;;;;5023784;28;19921;-35
2022/10/25 13:43:58;;;;;;;;;;;;;;;;;;5024498;28;19924;-36
2022/10/25 13:46:23;;;;;;;;;;;;;;;;;;5024279;28;20417;-35
2022/10/25 13:48:48;;;;;;;;;;;;;;;;;;5018329;28;19920;-35
2022/10/25 13:51:15;;;;;;;;;;;;;;;;;;5022034;28;19921;-35
2022/10/25 13:53:40;;;;;;;;;;;;;;;;;;5024089;28;19921;-36
2022/10/25 13:56:06;;;;;;;;;;;;;;;;;;5022677;28;19917;-35
2022/10/25 13:58:31;;;;;;;;;;;;;;;;;;5024431;28;20390;-36
2022/10/25 14:00:56;;;;;;;;;;;;;;;;;;5023058;28;19921;-35
2022/10/25 14:03:21;;;;;;;;;;;;;;;;;;5026262;28;19924;-35
2022/10/25 14:05:46;;;;;;;;;;;;;;;;;;5028125;28;19920;-35
2022/10/25 14:08:12;;;;;;;;;;;;;;;;;;5025425;28;19923;-35
2022/10/25 14:10:37;;;;;;;;;;;;;;;;;;5027940;28;19998;-35
2022/10/25 14:13:02;;;;;;;;;;;;;;;;;;5026316;28;19921;-35
2022/10/25 14:15:27;;;;;;;;;;;;;;;;;;5027816;28;19940;-35
2022/10/25 14:17:52;;;;;;;;;;;;;;;;;;5027221;28;20008;-35
2022/10/25 14:20:17;;;;;;;;;;;;;;;;;;5027760;28;19943;-35
2022/10/25 14:22:42;;;;;;;;;;;;;;;;;;5028000;28;19971;-35
2022/10/25 14:25:08;;;;;;;;;;;;;;;;;;5025845;28;19944;-35
2022/10/25 14:27:33;;;;;;;;;;;;;;;;;;5027597;28;19924;-35
2022/10/25 14:29:58;;;;;;;;;;;;;;;;;;5025794;28;19975;-35
2022/10/25 14:32:23;;;;;;;;;;;;;;;;;;5027315;28;20023;-35
2022/10/25 14:34:49;;;;;;;;;;;;;;;;;;5027264;28;19940;-35
2022/10/25 14:37:14;;;;;;;;;;;;;;;;;;5026632;28;20516;-35
2022/10/25 14:39:39;;;;;;;;;;;;;;;;;;5027439;28;20363;-35
2022/10/25 14:42:04;;;;;;;;;;;;;;;;;;5025992;28;19917;-35
2022/10/25 14:44:29;;;;;;;;;;;;;;;;;;5027123;28;19923;-35
2022/10/25 14:46:55;;;;;;;;;;;;;;;;;;5026448;28;19967;-35
2022/10/25 14:49:20;;;;;;;;;;;;;;;;;;5027333;28;19924;-35
2022/10/25 14:51:46;;;;;;;;;;;;;;;;;;5027324;28;19915;-35
2022/10/25 14:54:11;;;;;;;;;;;;;;;;;;5025531;28;19932;-35
2022/10/25 14:56:36;;;;;;;;;;;;;;;;;;5027575;28;19924;-35
2022/10/25 14:59:01;;;;;;;;;;;;;;;;;;5025075;28;19924;-35
2022/10/25 15:01:26;;;;;;;;;;;;;;;;;;5027201;28;19937;-35
2022/10/25 15:03:52;;;;;;;;;;;;;;;;;;5026225;28;19963;-35
2022/10/25 15:06:17;;;;;;;;;;;;;;;;;;5026806;28;19939;-35
2022/10/25 15:08:45;;;;;;;;;;;;;;;;;;5024195;28;20381;-35
2022/10/25 15:11:10;;;;;;;;;;;;;;;;;;5025698;28;19917;-35
2022/10/25 15:13:35;;;;;;;;;;;;;;;;;;5026279;28;20534;-35
2022/10/25 15:16:00;;;;;;;;;;;;;;;;;;5025245;28;20003;-35
2022/10/25 15:18:25;;;;;;;;;;;;;;;;;;5026555;28;19917;-35
2022/10/25 15:20:51;;;;;;;;;;;;;;;;;;5025787;28;19913;-35
2022/10/25 15:23:16;;;;;;;;;;;;;;;;;;5025444;28;19924;-35
2022/10/25 15:25:41;;;;;;;;;;;;;;;;;;5026790;28;19917;-35
2022/10/25 15:28:06;;;;;;;;;;;;;;;;;;5025036;28;20405;-35
2022/10/25 15:30:31;;;;;;;;;;;;;;;;;;5026439;28;19924;-35
2022/10/25 15:32:56;;;;;;;;;;;;;;;;;;5025889;28;19971;-35
2022/10/25 15:35:22;;;;;;;;;;;;;;;;;;5024903;28;19963;-35
2022/10/25 15:37:47;;;;;;;;;;;;;;;;;;5018998;28;19949;-35
2022/10/25 15:40:12;;;;;;;;;;;;;;;;;;5022591;28;19936;-35
2022/10/25 15:42:37;;;;;;;;;;;;;;;;;;5025915;28;19920;-35
2022/10/25 15:45:03;;;;;;;;;;;;;;;;;;5024010;28;19933;-35
2022/10/25 15:47:28;;;;;;;;;;;;;;;;;;5019729;28;20369;-35
2022/10/25 15:49:53;;;;;;;;;;;;;;;;;;5022599;28;19913;-35
2022/10/25 15:52:19;;;;;;;;;;;;;;;;;;5028386;28;19937;-35
2022/10/25 15:54:44;;;;;;;;;;;;;;;;;;5021993;28;19920;-35
2022/10/25 15:57:09;;;;;;;;;;;;;;;;;;5024407;28;19970;-35
2022/10/25 15:59:34;;;;;;;;;;;;;;;;;;5022927;28;19917;-35
2022/10/25 16:01:59;;;;;;;;;;;;;;;;;;5024350;28;19991;-34
2022/10/25 16:04:24;;;;;;;;;;;;;;;;;;5025251;28;19929;-34
2022/10/25 16:06:49;;;;;;;;;;;;;;;;;;5022792;28;20360;-35
2022/10/25 16:09:15;;;;;;;;;;;;;;;;;;5022494;28;19928;-34
2022/10/25 16:11:40;;;;;;;;;;;;;;;;;;5025774;28;19924;-35
2022/10/25 16:14:05;;;;;;;;;;;;;;;;;;5021171;28;19963;-34
2022/10/25 16:16:30;;;;;;;;;;;;;;;;;;5021552;28;19921;-35
2022/10/25 16:18:55;;;;;;;;;;;;;;;;;;5021444;28;20317;-35
2022/10/25 16:21:20;;;;;;;;;;;;;;;;;;5023057;28;19917;-35
2022/10/25 16:23:46;;;;;;;;;;;;;;;;;;5022551;28;20400;-35
2022/10/25 16:26:11;;;;;;;;;;;;;;;;;;5020929;28;19921;-34
2022/10/25 16:28:39;;;;;;;;;;;;;;;;;;5017918;28;19923;-35
2022/10/25 16:31:04;;;;;;;;;;;;;;;;;;5018114;28;20359;-34